Accueil
METAR-TAF:

METAR-TAF

Aéroports :

Aéroport de Colmar - Houssen

Colmar, France

latitude: 48-06-37N, longitude: 7-21-33E, altitude: 191 m

Observation

Le bulletin a été fait il y a 29 minutes, à 14:30 UTC
Vent 5 kt de nord-est, variant entre nord/nord-ouest et est/sud-est
Température 28°C
Humidité 28%
Pression 1014 hPa
Visibilité 10 km ou plus
pas de nuages en-dessous de 1500 mètres et pas de cumulonimbus.

METAR: LFGA 021430Z AUTO 04005KT 330V120 CAVOK 28/08 Q1014

Heure: 16:59 (14:59 UTC)


TAF: absent

Observations et prévisions météorologiques de plus de 4000 aéroports (messages METAR et TAF).

Les stations disponibles sont représentées par des disques jaunes et rouges sur la carte.

Passer la souris dessus pour voir le nom de la station.

Cliquer dessus pour voir les observations et prévisions météorologiques.

Pour changer de carte: cliquez sur les boutons verts avec une croix noire pour zoomer, sur le bouton vert avec un tiret pour effectuer un zoom arrière, ou sur les flèches vertes pour les cartes adjacentes.


METAR-TAF: